sensor_id;sensor_type;location;lat;lon;timestamp;P1;durP1;ratioP1;P2;durP2;ratioP2
11425;SDS011;5769;47.998;7.788;2023-03-05T00:01:55;3.35;;;2.10;;
11425;SDS011;5769;47.998;7.788;2023-03-05T00:04:21;4.47;;;2.10;;
11425;SDS011;5769;47.998;7.788;2023-03-05T00:06:48;4.28;;;2.35;;
11425;SDS011;5769;47.998;7.788;2023-03-05T00:09:15;4.10;;;1.88;;
11425;SDS011;5769;47.998;7.788;2023-03-05T00:11:43;4.38;;;2.40;;
11425;SDS011;5769;47.998;7.788;2023-03-05T00:14:10;5.90;;;2.38;;
11425;SDS011;5769;47.998;7.788;2023-03-05T00:16:37;5.50;;;2.38;;
11425;SDS011;5769;47.998;7.788;2023-03-05T00:19:05;5.05;;;2.03;;
11425;SDS011;5769;47.998;7.788;2023-03-05T00:21:33;4.40;;;2.33;;
11425;SDS011;5769;47.998;7.788;2023-03-05T00:24:01;4.63;;;2.33;;
11425;SDS011;5769;47.998;7.788;2023-03-05T00:26:30;5.13;;;2.10;;
11425;SDS011;5769;47.998;7.788;2023-03-05T00:28:59;3.92;;;2.05;;
11425;SDS011;5769;47.998;7.788;2023-03-05T00:31:26;4.55;;;2.22;;
11425;SDS011;5769;47.998;7.788;2023-03-05T00:33:55;4.78;;;2.22;;
11425;SDS011;5769;47.998;7.788;2023-03-05T00:36:23;4.82;;;2.22;;
11425;SDS011;5769;47.998;7.788;2023-03-05T00:38:50;3.88;;;2.10;;
11425;SDS011;5769;47.998;7.788;2023-03-05T00:41:17;3.65;;;2.10;;
11425;SDS011;5769;47.998;7.788;2023-03-05T00:43:44;4.22;;;2.35;;
11425;SDS011;5769;47.998;7.788;2023-03-05T00:46:12;4.97;;;2.33;;
11425;SDS011;5769;47.998;7.788;2023-03-05T00:48:38;5.88;;;2.30;;
11425;SDS011;5769;47.998;7.788;2023-03-05T00:51:05;3.85;;;2.10;;
11425;SDS011;5769;47.998;7.788;2023-03-05T00:53:33;4.10;;;2.10;;
11425;SDS011;5769;47.998;7.788;2023-03-05T00:56:00;4.82;;;2.17;;
11425;SDS011;5769;47.998;7.788;2023-03-05T00:58:26;4.57;;;1.95;;
11425;SDS011;5769;47.998;7.788;2023-03-05T01:00:55;4.47;;;2.20;;
11425;SDS011;5769;47.998;7.788;2023-03-05T01:03:24;4.32;;;1.95;;
11425;SDS011;5769;47.998;7.788;2023-03-05T01:05:51;3.65;;;1.92;;
11425;SDS011;5769;47.998;7.788;2023-03-05T01:08:18;3.78;;;2.00;;
11425;SDS011;5769;47.998;7.788;2023-03-05T01:10:44;4.28;;;2.08;;
11425;SDS011;5769;47.998;7.788;2023-03-05T01:13:11;5.90;;;2.50;;
11425;SDS011;5769;47.998;7.788;2023-03-05T01:15:38;4.30;;;2.13;;
11425;SDS011;5769;47.998;7.788;2023-03-05T01:18:04;4.40;;;2.17;;
11425;SDS011;5769;47.998;7.788;2023-03-05T01:20:33;4.38;;;2.20;;
11425;SDS011;5769;47.998;7.788;2023-03-05T01:22:59;4.65;;;2.25;;
11425;SDS011;5769;47.998;7.788;2023-03-05T01:25:26;5.03;;;2.40;;
11425;SDS011;5769;47.998;7.788;2023-03-05T01:27:53;3.67;;;1.83;;
11425;SDS011;5769;47.998;7.788;2023-03-05T01:30:20;4.05;;;2.03;;
11425;SDS011;5769;47.998;7.788;2023-03-05T01:32:47;3.88;;;2.10;;
11425;SDS011;5769;47.998;7.788;2023-03-05T01:35:14;4.30;;;2.17;;
11425;SDS011;5769;47.998;7.788;2023-03-05T01:37:44;4.50;;;2.17;;
11425;SDS011;5769;47.998;7.788;2023-03-05T01:40:11;4.05;;;2.03;;
11425;SDS011;5769;47.998;7.788;2023-03-05T01:42:43;4.13;;;2.00;;
11425;SDS011;5769;47.998;7.788;2023-03-05T01:45:11;3.60;;;1.95;;
11425;SDS011;5769;47.998;7.788;2023-03-05T01:47:39;3.90;;;2.25;;
11425;SDS011;5769;47.998;7.788;2023-03-05T01:50:07;4.25;;;2.35;;
11425;SDS011;5769;47.998;7.788;2023-03-05T01:52:37;3.95;;;2.17;;
11425;SDS011;5769;47.998;7.788;2023-03-05T01:55:08;4.20;;;2.30;;
11425;SDS011;5769;47.998;7.788;2023-03-05T01:57:39;4.38;;;2.00;;
11425;SDS011;5769;47.998;7.788;2023-03-05T02:00:12;4.13;;;1.90;;
11425;SDS011;5769;47.998;7.788;2023-03-05T02:02:41;4.35;;;1.92;;
11425;SDS011;5769;47.998;7.788;2023-03-05T02:05:10;3.55;;;2.10;;
11425;SDS011;5769;47.998;7.788;2023-03-05T02:07:41;3.83;;;2.03;;
11425;SDS011;5769;47.998;7.788;2023-03-05T02:10:17;4.53;;;2.15;;
11425;SDS011;5769;47.998;7.788;2023-03-05T02:12:45;3.83;;;2.17;;
11425;SDS011;5769;47.998;7.788;2023-03-05T02:15:14;5.18;;;2.28;;
11425;SDS011;5769;47.998;7.788;2023-03-05T02:17:41;4.90;;;2.20;;
11425;SDS011;5769;47.998;7.788;2023-03-05T02:20:09;4.78;;;1.98;;
11425;SDS011;5769;47.998;7.788;2023-03-05T02:22:39;4.07;;;2.40;;
11425;SDS011;5769;47.998;7.788;2023-03-05T02:25:15;3.70;;;2.10;;
11425;SDS011;5769;47.998;7.788;2023-03-05T02:27:45;4.50;;;2.15;;
11425;SDS011;5769;47.998;7.788;2023-03-05T02:30:17;4.55;;;2.25;;
11425;SDS011;5769;47.998;7.788;2023-03-05T02:32:43;4.32;;;2.15;;
11425;SDS011;5769;47.998;7.788;2023-03-05T02:35:10;3.60;;;1.80;;
11425;SDS011;5769;47.998;7.788;2023-03-05T02:37:38;4.40;;;1.70;;
11425;SDS011;5769;47.998;7.788;2023-03-05T02:40:06;3.88;;;1.90;;
11425;SDS011;5769;47.998;7.788;2023-03-05T02:42:33;3.30;;;1.92;;
11425;SDS011;5769;47.998;7.788;2023-03-05T02:45:00;3.00;;;1.83;;
11425;SDS011;5769;47.998;7.788;2023-03-05T02:47:27;3.50;;;2.10;;
11425;SDS011;5769;47.998;7.788;2023-03-05T02:49:54;3.15;;;1.95;;
11425;SDS011;5769;47.998;7.788;2023-03-05T02:52:21;3.92;;;1.90;;
11425;SDS011;5769;47.998;7.788;2023-03-05T02:54:49;3.58;;;1.77;;
11425;SDS011;5769;47.998;7.788;2023-03-05T02:57:16;3.63;;;1.85;;
11425;SDS011;5769;47.998;7.788;2023-03-05T02:59:43;5.55;;;2.10;;
11425;SDS011;5769;47.998;7.788;2023-03-05T03:02:10;4.05;;;2.10;;
11425;SDS011;5769;47.998;7.788;2023-03-05T03:04:37;4.13;;;2.08;;
11425;SDS011;5769;47.998;7.788;2023-03-05T03:07:03;4.13;;;1.98;;
11425;SDS011;5769;47.998;7.788;2023-03-05T03:09:30;4.15;;;2.17;;
11425;SDS011;5769;47.998;7.788;2023-03-05T03:12:00;4.50;;;1.92;;
11425;SDS011;5769;47.998;7.788;2023-03-05T03:14:29;4.07;;;1.92;;
11425;SDS011;5769;47.998;7.788;2023-03-05T03:16:56;4.13;;;2.30;;
11425;SDS011;5769;47.998;7.788;2023-03-05T03:19:23;5.72;;;2.20;;
11425;SDS011;5769;47.998;7.788;2023-03-05T03:21:50;4.65;;;2.40;;
11425;SDS011;5769;47.998;7.788;2023-03-05T03:24:18;5.90;;;2.20;;
11425;SDS011;5769;47.998;7.788;2023-03-05T03:26:45;3.75;;;2.17;;
11425;SDS011;5769;47.998;7.788;2023-03-05T03:29:13;3.80;;;2.03;;
11425;SDS011;5769;47.998;7.788;2023-03-05T03:31:40;3.65;;;1.90;;
11425;SDS011;5769;47.998;7.788;2023-03-05T03:34:07;3.75;;;1.95;;
11425;SDS011;5769;47.998;7.788;2023-03-05T03:36:33;4.47;;;2.00;;
11425;SDS011;5769;47.998;7.788;2023-03-05T03:39:00;3.83;;;2.10;;
11425;SDS011;5769;47.998;7.788;2023-03-05T03:41:27;3.75;;;1.88;;
11425;SDS011;5769;47.998;7.788;2023-03-05T03:43:54;3.28;;;1.92;;
11425;SDS011;5769;47.998;7.788;2023-03-05T03:46:22;3.83;;;2.00;;
11425;SDS011;5769;47.998;7.788;2023-03-05T03:48:49;3.40;;;1.85;;
11425;SDS011;5769;47.998;7.788;2023-03-05T03:51:16;3.65;;;2.10;;
11425;SDS011;5769;47.998;7.788;2023-03-05T03:53:42;3.90;;;2.30;;
11425;SDS011;5769;47.998;7.788;2023-03-05T03:56:09;3.67;;;2.00;;
11425;SDS011;5769;47.998;7.788;2023-03-05T03:58:35;2.95;;;1.73;;
11425;SDS011;5769;47.998;7.788;2023-03-05T04:01:02;3.10;;;1.92;;
11425;SDS011;5769;47.998;7.788;2023-03-05T04:03:30;4.65;;;1.88;;
11425;SDS011;5769;47.998;7.788;2023-03-05T04:05:57;4.45;;;2.05;;
11425;SDS011;5769;47.998;7.788;2023-03-05T04:08:24;4.63;;;2.05;;
11425;SDS011;5769;47.998;7.788;2023-03-05T04:10:50;3.85;;;1.88;;
11425;SDS011;5769;47.998;7.788;2023-03-05T04:13:17;3.97;;;2.03;;
11425;SDS011;5769;47.998;7.788;2023-03-05T04:15:44;3.47;;;1.90;;
11425;SDS011;5769;47.998;7.788;2023-03-05T04:18:11;3.55;;;1.95;;
11425;SDS011;5769;47.998;7.788;2023-03-05T04:20:39;3.25;;;1.80;;
11425;SDS011;5769;47.998;7.788;2023-03-05T04:23:05;3.63;;;1.95;;
11425;SDS011;5769;47.998;7.788;2023-03-05T04:25:32;3.35;;;1.85;;
11425;SDS011;5769;47.998;7.788;2023-03-05T04:27:59;3.38;;;1.83;;
11425;SDS011;5769;47.998;7.788;2023-03-05T04:30:25;4.35;;;2.17;;
11425;SDS011;5769;47.998;7.788;2023-03-05T04:32:52;4.10;;;2.03;;
11425;SDS011;5769;47.998;7.788;2023-03-05T04:35:19;3.58;;;1.90;;
11425;SDS011;5769;47.998;7.788;2023-03-05T04:37:47;3.60;;;1.90;;
11425;SDS011;5769;47.998;7.788;2023-03-05T04:40:13;2.88;;;1.70;;
11425;SDS011;5769;47.998;7.788;2023-03-05T04:42:41;4.25;;;2.22;;
11425;SDS011;5769;47.998;7.788;2023-03-05T04:45:09;3.40;;;1.85;;
11425;SDS011;5769;47.998;7.788;2023-03-05T04:47:36;2.92;;;1.65;;
11425;SDS011;5769;47.998;7.788;2023-03-05T04:50:03;3.33;;;2.08;;
11425;SDS011;5769;47.998;7.788;2023-03-05T04:52:31;3.55;;;1.80;;
11425;SDS011;5769;47.998;7.788;2023-03-05T04:54:59;3.90;;;1.98;;
11425;SDS011;5769;47.998;7.788;2023-03-05T04:57:26;3.92;;;1.98;;
11425;SDS011;5769;47.998;7.788;2023-03-05T04:59:53;3.65;;;1.80;;
11425;SDS011;5769;47.998;7.788;2023-03-05T05:02:19;3.20;;;2.00;;
11425;SDS011;5769;47.998;7.788;2023-03-05T05:04:46;3.42;;;1.90;;
11425;SDS011;5769;47.998;7.788;2023-03-05T05:07:12;3.45;;;2.00;;
11425;SDS011;5769;47.998;7.788;2023-03-05T05:09:39;3.30;;;1.95;;
11425;SDS011;5769;47.998;7.788;2023-03-05T05:12:08;3.42;;;1.83;;
11425;SDS011;5769;47.998;7.788;2023-03-05T05:14:35;3.55;;;1.90;;
11425;SDS011;5769;47.998;7.788;2023-03-05T05:17:02;5.38;;;1.90;;
11425;SDS011;5769;47.998;7.788;2023-03-05T05:19:29;3.42;;;1.92;;
11425;SDS011;5769;47.998;7.788;2023-03-05T05:21:55;2.95;;;1.55;;
11425;SDS011;5769;47.998;7.788;2023-03-05T05:24:22;3.63;;;2.00;;
11425;SDS011;5769;47.998;7.788;2023-03-05T05:26:49;3.40;;;1.80;;
11425;SDS011;5769;47.998;7.788;2023-03-05T05:29:17;3.00;;;1.70;;
11425;SDS011;5769;47.998;7.788;2023-03-05T05:31:44;2.85;;;1.65;;
11425;SDS011;5769;47.998;7.788;2023-03-05T05:34:11;4.07;;;1.92;;
11425;SDS011;5769;47.998;7.788;2023-03-05T05:36:37;3.78;;;1.70;;
11425;SDS011;5769;47.998;7.788;2023-03-05T05:39:04;3.20;;;1.65;;
11425;SDS011;5769;47.998;7.788;2023-03-05T05:41:31;3.05;;;1.92;;
11425;SDS011;5769;47.998;7.788;2023-03-05T05:43:57;4.00;;;1.85;;
11425;SDS011;5769;47.998;7.788;2023-03-05T05:46:25;3.40;;;1.90;;
11425;SDS011;5769;47.998;7.788;2023-03-05T05:48:53;3.45;;;1.63;;
11425;SDS011;5769;47.998;7.788;2023-03-05T05:51:20;3.65;;;1.83;;
11425;SDS011;5769;47.998;7.788;2023-03-05T05:53:48;3.20;;;1.60;;
11425;SDS011;5769;47.998;7.788;2023-03-05T05:56:15;3.80;;;1.83;;
11425;SDS011;5769;47.998;7.788;2023-03-05T05:58:43;3.20;;;1.80;;
11425;SDS011;5769;47.998;7.788;2023-03-05T06:01:11;3.42;;;1.85;;
11425;SDS011;5769;47.998;7.788;2023-03-05T06:03:40;3.53;;;1.77;;
11425;SDS011;5769;47.998;7.788;2023-03-05T06:06:08;3.90;;;1.73;;
11425;SDS011;5769;47.998;7.788;2023-03-05T06:08:35;3.28;;;1.40;;
11425;SDS011;5769;47.998;7.788;2023-03-05T06:11:02;3.75;;;1.88;;
11425;SDS011;5769;47.998;7.788;2023-03-05T06:13:29;3.42;;;1.75;;
11425;SDS011;5769;47.998;7.788;2023-03-05T06:15:56;3.15;;;1.70;;
11425;SDS011;5769;47.998;7.788;2023-03-05T06:18:23;3.45;;;1.65;;
11425;SDS011;5769;47.998;7.788;2023-03-05T06:20:55;3.10;;;1.90;;
11425;SDS011;5769;47.998;7.788;2023-03-05T06:23:22;3.40;;;1.75;;
11425;SDS011;5769;47.998;7.788;2023-03-05T06:25:49;3.45;;;1.88;;
11425;SDS011;5769;47.998;7.788;2023-03-05T06:28:15;3.30;;;1.70;;
11425;SDS011;5769;47.998;7.788;2023-03-05T06:30:42;3.90;;;1.85;;
11425;SDS011;5769;47.998;7.788;2023-03-05T06:33:09;4.18;;;1.80;;
11425;SDS011;5769;47.998;7.788;2023-03-05T06:35:36;3.58;;;2.00;;
11425;SDS011;5769;47.998;7.788;2023-03-05T06:38:05;2.88;;;1.65;;
11425;SDS011;5769;47.998;7.788;2023-03-05T06:40:33;3.42;;;1.90;;
11425;SDS011;5769;47.998;7.788;2023-03-05T06:43:00;3.40;;;1.75;;
11425;SDS011;5769;47.998;7.788;2023-03-05T06:45:26;3.45;;;1.85;;
11425;SDS011;5769;47.998;7.788;2023-03-05T06:47:53;3.28;;;1.75;;
11425;SDS011;5769;47.998;7.788;2023-03-05T06:50:20;3.72;;;1.88;;
11425;SDS011;5769;47.998;7.788;2023-03-05T06:52:47;4.15;;;2.03;;
11425;SDS011;5769;47.998;7.788;2023-03-05T06:55:16;4.18;;;1.70;;
11425;SDS011;5769;47.998;7.788;2023-03-05T06:57:43;3.83;;;2.00;;
11425;SDS011;5769;47.998;7.788;2023-03-05T07:00:10;3.58;;;1.90;;
11425;SDS011;5769;47.998;7.788;2023-03-05T07:02:38;3.42;;;1.73;;
11425;SDS011;5769;47.998;7.788;2023-03-05T07:05:05;2.83;;;1.60;;
11425;SDS011;5769;47.998;7.788;2023-03-05T07:07:32;3.47;;;1.70;;
11425;SDS011;5769;47.998;7.788;2023-03-05T07:09:59;3.20;;;1.75;;
11425;SDS011;5769;47.998;7.788;2023-03-05T07:12:28;3.28;;;1.80;;
11425;SDS011;5769;47.998;7.788;2023-03-05T07:14:55;3.50;;;1.88;;
11425;SDS011;5769;47.998;7.788;2023-03-05T07:17:21;3.05;;;1.65;;
11425;SDS011;5769;47.998;7.788;2023-03-05T07:19:48;2.92;;;1.65;;
11425;SDS011;5769;47.998;7.788;2023-03-05T07:22:15;3.50;;;1.70;;
11425;SDS011;5769;47.998;7.788;2023-03-05T07:24:41;2.90;;;1.75;;
11425;SDS011;5769;47.998;7.788;2023-03-05T07:27:08;3.78;;;1.80;;
11425;SDS011;5769;47.998;7.788;2023-03-05T07:29:36;3.58;;;1.55;;
11425;SDS011;5769;47.998;7.788;2023-03-05T07:32:03;2.70;;;1.60;;
11425;SDS011;5769;47.998;7.788;2023-03-05T07:34:30;3.40;;;1.80;;
11425;SDS011;5769;47.998;7.788;2023-03-05T07:36:57;3.25;;;1.80;;
11425;SDS011;5769;47.998;7.788;2023-03-05T07:39:23;3.22;;;1.63;;
11425;SDS011;5769;47.998;7.788;2023-03-05T07:41:50;2.47;;;1.40;;
11425;SDS011;5769;47.998;7.788;2023-03-05T07:44:17;3.67;;;1.70;;
11425;SDS011;5769;47.998;7.788;2023-03-05T07:46:45;3.60;;;1.77;;
11425;SDS011;5769;47.998;7.788;2023-03-05T07:49:12;3.20;;;1.80;;
11425;SDS011;5769;47.998;7.788;2023-03-05T07:51:39;3.35;;;1.67;;
11425;SDS011;5769;47.998;7.788;2023-03-05T07:54:05;3.95;;;1.95;;
11425;SDS011;5769;47.998;7.788;2023-03-05T07:56:33;2.80;;;1.60;;
11425;SDS011;5769;47.998;7.788;2023-03-05T07:59:01;3.47;;;1.95;;
11425;SDS011;5769;47.998;7.788;2023-03-05T08:01:30;3.20;;;1.80;;
11425;SDS011;5769;47.998;7.788;2023-03-05T08:04:00;3.38;;;1.63;;
11425;SDS011;5769;47.998;7.788;2023-03-05T08:06:27;3.42;;;1.67;;
11425;SDS011;5769;47.998;7.788;2023-03-05T08:08:54;3.75;;;1.67;;
11425;SDS011;5769;47.998;7.788;2023-03-05T08:11:20;3.65;;;1.90;;
11425;SDS011;5769;47.998;7.788;2023-03-05T08:13:47;3.25;;;1.45;;
11425;SDS011;5769;47.998;7.788;2023-03-05T08:16:15;2.58;;;1.40;;
11425;SDS011;5769;47.998;7.788;2023-03-05T08:18:44;2.95;;;1.60;;
11425;SDS011;5769;47.998;7.788;2023-03-05T08:21:16;2.63;;;1.40;;
11425;SDS011;5769;47.998;7.788;2023-03-05T08:23:44;2.75;;;1.60;;
11425;SDS011;5769;47.998;7.788;2023-03-05T08:26:12;2.83;;;1.70;;
11425;SDS011;5769;47.998;7.788;2023-03-05T08:28:39;2.47;;;1.58;;
11425;SDS011;5769;47.998;7.788;2023-03-05T08:31:09;2.75;;;1.60;;
11425;SDS011;5769;47.998;7.788;2023-03-05T08:33:36;3.72;;;1.80;;
11425;SDS011;5769;47.998;7.788;2023-03-05T08:36:04;2.38;;;1.50;;
11425;SDS011;5769;47.998;7.788;2023-03-05T08:38:33;4.47;;;1.60;;
11425;SDS011;5769;47.998;7.788;2023-03-05T08:41:00;2.83;;;1.65;;
11425;SDS011;5769;47.998;7.788;2023-03-05T08:43:27;3.28;;;1.80;;
11425;SDS011;5769;47.998;7.788;2023-03-05T08:45:54;3.00;;;1.60;;
11425;SDS011;5769;47.998;7.788;2023-03-05T08:48:21;3.70;;;1.67;;
11425;SDS011;5769;47.998;7.788;2023-03-05T08:50:48;2.63;;;1.40;;
11425;SDS011;5769;47.998;7.788;2023-03-05T08:53:15;3.45;;;1.80;;
11425;SDS011;5769;47.998;7.788;2023-03-05T08:55:43;2.33;;;1.45;;
11425;SDS011;5769;47.998;7.788;2023-03-05T08:58:18;2.78;;;1.45;;
11425;SDS011;5769;47.998;7.788;2023-03-05T09:00:44;2.90;;;1.42;;
11425;SDS011;5769;47.998;7.788;2023-03-05T09:03:11;3.13;;;1.50;;
11425;SDS011;5769;47.998;7.788;2023-03-05T09:05:38;2.85;;;1.65;;
11425;SDS011;5769;47.998;7.788;2023-03-05T09:08:04;3.65;;;1.70;;
11425;SDS011;5769;47.998;7.788;2023-03-05T09:10:31;3.35;;;1.50;;
11425;SDS011;5769;47.998;7.788;2023-03-05T09:12:59;3.67;;;1.50;;
11425;SDS011;5769;47.998;7.788;2023-03-05T09:15:28;2.83;;;1.67;;
11425;SDS011;5769;47.998;7.788;2023-03-05T09:17:55;2.38;;;1.33;;
11425;SDS011;5769;47.998;7.788;2023-03-05T09:20:22;3.70;;;1.60;;
11425;SDS011;5769;47.998;7.788;2023-03-05T09:22:48;2.95;;;1.60;;
11425;SDS011;5769;47.998;7.788;2023-03-05T09:25:15;2.10;;;1.40;;
11425;SDS011;5769;47.998;7.788;2023-03-05T09:27:42;2.42;;;1.38;;
11425;SDS011;5769;47.998;7.788;2023-03-05T09:30:11;2.92;;;1.50;;
11425;SDS011;5769;47.998;7.788;2023-03-05T09:32:39;2.50;;;1.48;;
11425;SDS011;5769;47.998;7.788;2023-03-05T09:35:06;2.67;;;1.60;;
11425;SDS011;5769;47.998;7.788;2023-03-05T09:37:33;2.58;;;1.50;;
11425;SDS011;5769;47.998;7.788;2023-03-05T09:40:00;2.55;;;1.42;;
11425;SDS011;5769;47.998;7.788;2023-03-05T09:42:29;2.55;;;1.48;;
11425;SDS011;5769;47.998;7.788;2023-03-05T09:45:14;3.35;;;1.73;;
11425;SDS011;5769;47.998;7.788;2023-03-05T09:47:49;2.42;;;1.40;;
11425;SDS011;5769;47.998;7.788;2023-03-05T09:50:27;3.85;;;1.63;;
11425;SDS011;5769;47.998;7.788;2023-03-05T09:53:00;3.00;;;1.38;;
11425;SDS011;5769;47.998;7.788;2023-03-05T09:55:32;2.47;;;1.40;;
11425;SDS011;5769;47.998;7.788;2023-03-05T09:58:05;2.83;;;1.48;;
11425;SDS011;5769;47.998;7.788;2023-03-05T10:00:38;3.15;;;1.50;;
11425;SDS011;5769;47.998;7.788;2023-03-05T10:03:09;3.03;;;1.50;;
11425;SDS011;5769;47.998;7.788;2023-03-05T10:05:45;2.55;;;1.40;;
11425;SDS011;5769;47.998;7.788;2023-03-05T10:08:31;3.13;;;1.70;;
11425;SDS011;5769;47.998;7.788;2023-03-05T10:11:09;2.67;;;1.52;;
11425;SDS011;5769;47.998;7.788;2023-03-05T10:13:49;2.55;;;1.50;;
11425;SDS011;5769;47.998;7.788;2023-03-05T10:16:27;2.53;;;1.35;;
11425;SDS011;5769;47.998;7.788;2023-03-05T10:19:06;3.30;;;1.60;;
11425;SDS011;5769;47.998;7.788;2023-03-05T10:21:41;2.40;;;1.30;;
11425;SDS011;5769;47.998;7.788;2023-03-05T10:24:16;2.58;;;1.50;;
11425;SDS011;5769;47.998;7.788;2023-03-05T10:26:51;3.13;;;1.45;;
11425;SDS011;5769;47.998;7.788;2023-03-05T10:29:44;2.75;;;1.40;;
11425;SDS011;5769;47.998;7.788;2023-03-05T10:32:25;2.58;;;1.50;;
11425;SDS011;5769;47.998;7.788;2023-03-05T10:35:07;3.20;;;1.50;;
11425;SDS011;5769;47.998;7.788;2023-03-05T10:37:51;2.72;;;1.50;;
11425;SDS011;5769;47.998;7.788;2023-03-05T10:40:30;2.67;;;1.50;;
11425;SDS011;5769;47.998;7.788;2023-03-05T10:43:03;3.15;;;1.50;;
11425;SDS011;5769;47.998;7.788;2023-03-05T10:45:38;2.38;;;1.30;;
11425;SDS011;5769;47.998;7.788;2023-03-05T10:48:11;3.28;;;1.40;;
11425;SDS011;5769;47.998;7.788;2023-03-05T10:50:45;3.25;;;1.55;;
11425;SDS011;5769;47.998;7.788;2023-03-05T10:53:16;3.67;;;1.58;;
11425;SDS011;5769;47.998;7.788;2023-03-05T10:55:49;3.70;;;1.60;;
11425;SDS011;5769;47.998;7.788;2023-03-05T10:58:20;3.95;;;1.40;;
11425;SDS011;5769;47.998;7.788;2023-03-05T11:00:58;3.72;;;1.30;;
11425;SDS011;5769;47.998;7.788;2023-03-05T11:03:44;13.93;;;2.38;;
11425;SDS011;5769;47.998;7.788;2023-03-05T11:06:13;2.60;;;1.30;;
11425;SDS011;5769;47.998;7.788;2023-03-05T11:08:40;4.65;;;1.63;;
11425;SDS011;5769;47.998;7.788;2023-03-05T11:11:11;4.22;;;1.50;;
11425;SDS011;5769;47.998;7.788;2023-03-05T11:13:43;2.80;;;1.58;;
11425;SDS011;5769;47.998;7.788;2023-03-05T11:16:18;2.72;;;1.50;;
11425;SDS011;5769;47.998;7.788;2023-03-05T11:18:48;3.42;;;1.58;;
11425;SDS011;5769;47.998;7.788;2023-03-05T11:21:18;3.42;;;1.67;;
11425;SDS011;5769;47.998;7.788;2023-03-05T11:26:44;5.03;;;1.70;;
11425;SDS011;5769;47.998;7.788;2023-03-05T11:29:17;2.80;;;1.48;;
11425;SDS011;5769;47.998;7.788;2023-03-05T11:31:47;3.22;;;1.30;;
11425;SDS011;5769;47.998;7.788;2023-03-05T11:34:22;2.35;;;1.48;;
11425;SDS011;5769;47.998;7.788;2023-03-05T11:36:58;2.50;;;1.45;;
11425;SDS011;5769;47.998;7.788;2023-03-05T11:39:30;2.72;;;1.33;;
11425;SDS011;5769;47.998;7.788;2023-03-05T11:42:00;2.60;;;1.25;;
11425;SDS011;5769;47.998;7.788;2023-03-05T11:44:31;2.72;;;1.45;;
11425;SDS011;5769;47.998;7.788;2023-03-05T11:47:03;3.35;;;1.50;;
11425;SDS011;5769;47.998;7.788;2023-03-05T11:49:45;3.22;;;1.50;;
11425;SDS011;5769;47.998;7.788;2023-03-05T11:52:17;4.32;;;1.60;;
11425;SDS011;5769;47.998;7.788;2023-03-05T11:54:52;2.85;;;1.55;;
11425;SDS011;5769;47.998;7.788;2023-03-05T11:57:24;2.53;;;1.35;;
11425;SDS011;5769;47.998;7.788;2023-03-05T11:59:52;4.05;;;1.60;;
11425;SDS011;5769;47.998;7.788;2023-03-05T12:02:23;3.47;;;1.60;;
11425;SDS011;5769;47.998;7.788;2023-03-05T12:04:53;2.10;;;1.33;;
11425;SDS011;5769;47.998;7.788;2023-03-05T12:07:21;3.35;;;1.50;;
11425;SDS011;5769;47.998;7.788;2023-03-05T12:09:56;3.30;;;1.60;;
11425;SDS011;5769;47.998;7.788;2023-03-05T12:12:27;2.88;;;1.50;;
11425;SDS011;5769;47.998;7.788;2023-03-05T12:15:01;3.03;;;1.48;;
11425;SDS011;5769;47.998;7.788;2023-03-05T12:17:42;3.13;;;1.45;;
11425;SDS011;5769;47.998;7.788;2023-03-05T12:20:16;2.85;;;1.35;;
11425;SDS011;5769;47.998;7.788;2023-03-05T12:22:51;3.78;;;1.88;;
11425;SDS011;5769;47.998;7.788;2023-03-05T12:25:25;2.53;;;1.40;;
11425;SDS011;5769;47.998;7.788;2023-03-05T12:27:56;2.88;;;1.60;;
11425;SDS011;5769;47.998;7.788;2023-03-05T12:30:52;2.58;;;1.27;;
11425;SDS011;5769;47.998;7.788;2023-03-05T12:33:34;3.75;;;1.50;;
11425;SDS011;5769;47.998;7.788;2023-03-05T12:39:00;3.25;;;1.30;;
11425;SDS011;5769;47.998;7.788;2023-03-05T12:41:31;3.25;;;1.38;;
11425;SDS011;5769;47.998;7.788;2023-03-05T12:44:09;3.10;;;1.40;;
11425;SDS011;5769;47.998;7.788;2023-03-05T12:46:45;3.55;;;1.38;;
11425;SDS011;5769;47.998;7.788;2023-03-05T12:49:47;2.60;;;1.55;;
11425;SDS011;5769;47.998;7.788;2023-03-05T12:52:21;2.88;;;1.35;;
11425;SDS011;5769;47.998;7.788;2023-03-05T12:55:04;3.13;;;1.60;;
11425;SDS011;5769;47.998;7.788;2023-03-05T12:57:45;3.80;;;1.67;;
11425;SDS011;5769;47.998;7.788;2023-03-05T13:00:13;4.25;;;1.40;;
11425;SDS011;5769;47.998;7.788;2023-03-05T13:02:47;4.38;;;1.50;;
11425;SDS011;5769;47.998;7.788;2023-03-05T13:05:20;3.55;;;1.48;;
11425;SDS011;5769;47.998;7.788;2023-03-05T13:07:50;2.70;;;1.30;;
11425;SDS011;5769;47.998;7.788;2023-03-05T13:10:20;3.40;;;1.50;;
11425;SDS011;5769;47.998;7.788;2023-03-05T13:12:49;3.72;;;1.45;;
11425;SDS011;5769;47.998;7.788;2023-03-05T13:15:18;3.17;;;1.60;;
11425;SDS011;5769;47.998;7.788;2023-03-05T13:17:52;2.75;;;1.35;;
11425;SDS011;5769;47.998;7.788;2023-03-05T13:20:27;4.93;;;1.40;;
11425;SDS011;5769;47.998;7.788;2023-03-05T13:23:12;2.53;;;1.33;;
11425;SDS011;5769;47.998;7.788;2023-03-05T13:25:42;2.28;;;1.20;;
11425;SDS011;5769;47.998;7.788;2023-03-05T13:28:10;3.50;;;1.75;;
11425;SDS011;5769;47.998;7.788;2023-03-05T13:30:41;2.28;;;1.27;;
11425;SDS011;5769;47.998;7.788;2023-03-05T13:33:14;2.55;;;1.30;;
11425;SDS011;5769;47.998;7.788;2023-03-05T13:35:44;4.55;;;1.70;;
11425;SDS011;5769;47.998;7.788;2023-03-05T13:38:15;2.30;;;1.15;;
11425;SDS011;5769;47.998;7.788;2023-03-05T13:40:59;3.28;;;1.30;;
11425;SDS011;5769;47.998;7.788;2023-03-05T13:43:31;2.92;;;1.30;;
11425;SDS011;5769;47.998;7.788;2023-03-05T13:45:58;2.00;;;1.20;;
11425;SDS011;5769;47.998;7.788;2023-03-05T13:48:26;3.45;;;1.40;;
11425;SDS011;5769;47.998;7.788;2023-03-05T13:50:53;2.97;;;1.42;;
11425;SDS011;5769;47.998;7.788;2023-03-05T13:53:21;2.85;;;1.38;;
11425;SDS011;5769;47.998;7.788;2023-03-05T13:55:50;2.83;;;1.58;;
11425;SDS011;5769;47.998;7.788;2023-03-05T14:01:24;2.70;;;1.40;;
11425;SDS011;5769;47.998;7.788;2023-03-05T14:03:56;2.78;;;1.40;;
11425;SDS011;5769;47.998;7.788;2023-03-05T14:06:25;3.47;;;1.50;;
11425;SDS011;5769;47.998;7.788;2023-03-05T14:08:54;3.00;;;1.30;;
11425;SDS011;5769;47.998;7.788;2023-03-05T14:11:26;3.33;;;1.45;;
11425;SDS011;5769;47.998;7.788;2023-03-05T14:13:57;2.50;;;1.40;;
11425;SDS011;5769;47.998;7.788;2023-03-05T14:16:31;2.95;;;1.20;;
11425;SDS011;5769;47.998;7.788;2023-03-05T14:19:00;2.30;;;1.30;;
11425;SDS011;5769;47.998;7.788;2023-03-05T14:21:41;3.65;;;1.40;;
11425;SDS011;5769;47.998;7.788;2023-03-05T14:24:10;3.10;;;1.23;;
11425;SDS011;5769;47.998;7.788;2023-03-05T14:26:38;3.22;;;1.25;;
11425;SDS011;5769;47.998;7.788;2023-03-05T14:29:12;2.15;;;1.23;;
11425;SDS011;5769;47.998;7.788;2023-03-05T14:31:45;2.55;;;1.27;;
11425;SDS011;5769;47.998;7.788;2023-03-05T14:34:18;3.40;;;1.58;;
11425;SDS011;5769;47.998;7.788;2023-03-05T14:36:48;2.35;;;1.20;;
11425;SDS011;5769;47.998;7.788;2023-03-05T14:39:23;5.22;;;1.40;;
11425;SDS011;5769;47.998;7.788;2023-03-05T14:44:51;3.10;;;1.40;;
11425;SDS011;5769;47.998;7.788;2023-03-05T14:47:19;2.90;;;1.25;;
11425;SDS011;5769;47.998;7.788;2023-03-05T14:49:47;4.38;;;1.50;;
11425;SDS011;5769;47.998;7.788;2023-03-05T14:52:14;3.95;;;1.58;;
11425;SDS011;5769;47.998;7.788;2023-03-05T14:54:43;3.35;;;1.20;;
11425;SDS011;5769;47.998;7.788;2023-03-05T14:57:12;2.60;;;1.45;;
11425;SDS011;5769;47.998;7.788;2023-03-05T14:59:41;2.53;;;1.33;;
11425;SDS011;5769;47.998;7.788;2023-03-05T15:02:10;2.85;;;1.20;;
11425;SDS011;5769;47.998;7.788;2023-03-05T15:04:40;3.05;;;1.50;;
11425;SDS011;5769;47.998;7.788;2023-03-05T15:07:10;3.20;;;1.20;;
11425;SDS011;5769;47.998;7.788;2023-03-05T15:09:42;2.35;;;1.38;;
11425;SDS011;5769;47.998;7.788;2023-03-05T15:12:09;3.05;;;1.35;;
11425;SDS011;5769;47.998;7.788;2023-03-05T15:14:37;3.00;;;1.40;;
11425;SDS011;5769;47.998;7.788;2023-03-05T15:17:06;2.97;;;1.30;;
11425;SDS011;5769;47.998;7.788;2023-03-05T15:19:38;2.97;;;1.23;;
11425;SDS011;5769;47.998;7.788;2023-03-05T15:22:04;2.88;;;1.40;;
11425;SDS011;5769;47.998;7.788;2023-03-05T15:24:32;2.63;;;1.25;;
11425;SDS011;5769;47.998;7.788;2023-03-05T15:26:59;2.60;;;1.23;;